Time;durP1;ratioP1;P1;durP2;ratioP2;P2;SDS_P1;SDS_P2;PMS_P1;PMS_P2;Temp;Humidity;BMP_temperature;BMP_pressure;BME280_temperature;BME280_humidity;BME280_pressure;Samples;Min_cycle;Max_cycle;Signal;HPM_P1;HPM_P2
2022/01/19 00:01:42;;;;;;;24.67;8.48;;;;;;;19.98;18.17;99780.81;5067636;28;20071;-79
2022/01/19 00:04:09;;;;;;;27.15;8.93;;;;;;;19.95;18.10;99787.13;5065516;28;20391;-79
2022/01/19 00:06:35;;;;;;;23.13;8.30;;;;;;;19.78;18.25;99778.38;5074404;28;20484;-79
2022/01/19 00:09:02;;;;;;;24.83;9.50;;;;;;;19.39;18.64;99773.88;5064190;28;20036;-79
2022/01/19 00:11:28;;;;;;;20.55;8.30;;;;;;;19.92;18.36;99771.16;5054939;28;20104;-80
2022/01/19 00:13:54;;;;;;;24.67;8.02;;;;;;;20.35;17.84;99763.69;5054053;28;20369;-79
2022/01/19 00:16:21;;;;;;;30.35;11.63;;;;;;;19.89;18.13;99752.34;5054292;28;20060;-80
2022/01/19 00:18:47;;;;;;;22.15;8.75;;;;;;;19.96;18.22;99757.25;5053876;28;20044;-80
2022/01/19 00:21:14;;;;;;;24.95;9.13;;;;;;;19.35;18.72;99751.47;5054439;28;20033;-79
2022/01/19 00:23:40;;;;;;;26.20;9.25;;;;;;;19.52;18.74;99755.88;5054178;28;20488;-79
2022/01/19 00:26:06;;;;;;;26.48;8.93;;;;;;;19.13;18.75;99746.56;5064737;28;20755;-80
2022/01/19 00:28:32;;;;;;;23.88;9.18;;;;;;;19.58;18.73;99766.38;5072928;28;20028;-79
2022/01/19 00:31:00;;;;;;;24.95;8.98;;;;;;;19.53;18.78;99763.06;5073843;28;20021;-80
2022/01/19 00:33:26;;;;;;;21.70;7.82;;;;;;;20.01;18.10;99756.97;5073921;28;20558;-80
2022/01/19 00:35:53;;;;;;;22.63;8.20;;;;;;;20.27;17.99;99754.38;5072200;28;20107;-80
2022/01/19 00:38:19;;;;;;;27.30;9.27;;;;;;;20.43;17.69;99755.09;5062147;28;20479;-79
2022/01/19 00:40:46;;;;;;;26.40;8.30;;;;;;;20.31;17.93;99758.03;5073666;28;20043;-80
2022/01/19 00:43:14;;;;;;;20.90;7.57;;;;;;;20.86;17.35;99759.50;5061722;28;20112;-80
2022/01/19 00:45:41;;;;;;;20.88;7.57;;;;;;;20.29;18.02;99763.19;5053690;28;20056;-80
2022/01/19 00:48:07;;;;;;;19.90;7.72;;;;;;;21.02;17.24;99754.59;5053893;28;20037;-80
2022/01/19 00:50:33;;;;;;;21.77;7.57;;;;;;;21.56;16.72;99753.47;5053646;28;20515;-80
2022/01/19 00:52:59;;;;;;;16.75;7.78;;;;;;;21.40;16.76;99755.63;5053809;28;20025;-80
2022/01/19 00:55:27;;;;;;;17.52;7.40;;;;;;;21.69;16.59;99757.63;5056657;28;20056;-80
2022/01/19 00:57:54;;;;;;;18.58;6.72;;;;;;;21.99;16.11;99758.50;5062395;28;20396;-79
2022/01/19 01:00:23;;;;;;;17.55;6.85;;;;;;;20.68;17.29;99769.50;5072621;28;20119;-79
2022/01/19 01:02:49;;;;;;;17.42;6.57;;;;;;;20.48;17.30;99777.13;5061781;28;20021;-80
2022/01/19 01:05:16;;;;;;;17.65;6.93;;;;;;;20.67;17.42;99776.28;5073395;28;20020;-80
2022/01/19 01:07:42;;;;;;;24.10;7.43;;;;;;;21.33;16.70;99768.28;5073400;28;20068;-80
2022/01/19 01:10:14;;;;;;;22.40;7.78;;;;;;;21.41;16.55;99763.63;5071821;28;20511;-80
2022/01/19 01:12:50;;;;;;;16.55;7.43;;;;;;;21.17;16.73;99758.44;5053271;28;20489;-79
2022/01/19 01:15:47;;;;;;;18.10;6.72;;;;;;;21.58;16.46;99765.06;5053584;28;20449;-80
2022/01/19 01:18:19;;;;;;;16.67;6.93;;;;;;;21.88;16.17;99751.97;5072798;28;20047;-80
2022/01/19 01:20:50;;;;;;;19.77;7.68;;;;;;;21.62;16.35;99736.00;5072609;28;20090;-79
2022/01/19 01:23:19;;;;;;;19.25;6.40;;;;;;;22.03;16.09;99732.19;5073338;28;20044;-80
2022/01/19 01:25:46;;;;;;;19.63;5.82;;;;;;;22.31;15.95;99730.94;5073717;28;20024;-79
2022/01/19 01:28:13;;;;;;;13.90;5.97;;;;;;;22.29;15.83;99716.47;5073046;28;20064;-80
2022/01/19 01:30:40;;;;;;;10.02;4.88;;;;;;;22.44;15.71;99715.47;5073412;28;20039;-80
2022/01/19 01:33:06;;;;;;;12.93;5.00;;;;;;;22.71;15.41;99705.75;5070146;28;20078;-80
2022/01/19 01:35:33;;;;;;;12.55;4.78;;;;;;;22.47;15.63;99704.31;5053146;28;20477;-80
2022/01/19 01:37:59;;;;;;;13.20;4.63;;;;;;;22.53;15.68;99702.78;5053651;28;20111;-80
2022/01/19 01:40:27;;;;;;;14.57;5.72;;;;;;;22.64;15.61;99700.91;5051683;28;20033;-80
2022/01/19 01:42:55;;;;;;;13.48;4.13;;;;;;;22.82;15.61;99689.06;5052879;28;20025;-80
2022/01/19 01:45:27;;;;;;;10.57;4.47;;;;;;;22.79;15.18;99679.44;5052935;28;20505;-80
2022/01/19 01:53:26;;;;;;;11.70;4.32;;;;;;;22.93;15.26;99664.75;5072080;28;20052;-80
2022/01/19 01:56:14;;;;;;;11.38;4.20;;;;;;;22.94;15.17;99666.38;5057942;28;20029;-80
2022/01/19 01:58:44;;;;;;;8.25;3.97;;;;;;;23.29;14.92;99661.03;5057205;28;20029;-79
2022/01/19 02:01:11;;;;;;;11.70;3.97;;;;;;;23.36;14.91;99667.50;5056692;28;20086;-80
2022/01/19 02:03:40;;;;;;;13.43;3.85;;;;;;;23.03;15.14;99664.03;5056495;28;20091;-79
2022/01/19 02:08:51;;;;;;;8.75;4.07;;;;;;;23.02;15.14;99660.44;5072711;28;20496;-80
2022/01/19 02:22:02;;;;;;;11.30;2.70;;;;;;;23.14;15.04;99642.50;5056662;28;20546;-79
2022/01/19 02:24:32;;;;;;;7.53;2.70;;;;;;;23.21;14.92;99636.94;5060365;28;20028;-79
2022/01/19 02:40:58;;;;;;;11.80;4.13;;;;;;;22.85;15.31;99616.28;5073802;28;20071;-79
2022/01/19 02:43:27;;;;;;;9.35;3.80;;;;;;;22.59;15.24;99622.06;5072625;28;20048;-80
2022/01/19 02:51:23;;;;;;;10.90;3.72;;;;;;;22.83;15.16;99613.06;5056418;28;20051;-79
2022/01/19 02:53:49;;;;;;;11.55;4.20;;;;;;;22.67;15.42;99612.53;5063515;28;20438;-80
2022/01/19 02:56:25;;;;;;;10.65;3.15;;;;;;;22.48;15.49;99616.34;5076100;28;20044;-80
2022/01/19 02:58:58;;;;;;;10.70;3.83;;;;;;;22.45;15.43;99596.75;5075165;28;20039;-80
2022/01/19 03:09:22;;;;;;;7.82;3.20;;;;;;;21.37;16.48;99583.94;5075099;28;20048;-79
2022/01/19 03:11:49;;;;;;;7.63;2.83;;;;;;;21.46;16.28;99587.25;5065851;28;20106;-80
2022/01/19 03:14:17;;;;;;;13.63;3.50;;;;;;;21.31;16.57;99577.06;5055467;28;20533;-80
2022/01/19 03:16:44;;;;;;;13.88;3.70;;;;;;;21.70;16.15;99574.75;5055961;28;20025;-80
2022/01/19 03:19:11;;;;;;;13.63;3.53;;;;;;;21.91;16.00;99578.59;5055490;28;20085;-80
2022/01/19 03:21:38;;;;;;;11.75;3.65;;;;;;;21.78;16.16;99571.66;5055341;28;20061;-80
2022/01/19 03:24:05;;;;;;;10.38;3.65;;;;;;;21.52;16.22;99573.75;5055053;28;20521;-79
2022/01/19 03:26:32;;;;;;;12.07;3.55;;;;;;;21.62;16.15;99561.88;5055487;28;20036;-79
2022/01/19 03:28:58;;;;;;;9.63;3.25;;;;;;;21.79;15.88;99566.88;5055340;28;20052;-79
2022/01/19 03:51:39;;;;;;;10.48;3.97;;;;;;;22.89;15.23;99543.50;5056915;28;20055;-80
2022/01/19 03:54:06;;;;;;;12.90;3.83;;;;;;;22.87;15.09;99549.47;5064680;28;20380;-80
2022/01/19 03:56:32;;;;;;;12.45;4.00;;;;;;;23.02;14.91;99539.97;5074988;28;20032;-80
2022/01/19 03:58:58;;;;;;;12.70;3.92;;;;;;;23.10;15.02;99540.81;5074677;28;20024;-80
2022/01/19 04:01:25;;;;;;;7.35;2.80;;;;;;;23.16;14.98;99534.44;5074764;28;20041;-80
2022/01/19 04:04:10;;;;;;;11.32;3.15;;;;;;;23.21;14.71;99530.47;5074571;28;20511;-80
2022/01/19 04:09:20;;;;;;;11.07;3.53;;;;;;;22.99;14.91;99525.94;5056160;28;20466;-80
2022/01/19 04:11:47;;;;;;;9.13;3.42;;;;;;;22.79;15.18;99519.03;5074388;28;20029;-80
2022/01/19 04:14:22;;;;;;;12.20;4.10;;;;;;;22.75;14.88;99529.41;5074276;28;20074;-80
2022/01/19 04:16:52;;;;;;;15.77;4.72;;;;;;;22.32;15.43;99529.06;5074404;28;20028;-80
2022/01/19 04:19:26;;;;;;;;;;;;;;;21.64;15.65;99534.34;5074073;28;20511;-80
2022/01/19 04:21:53;;;;;;;12.77;3.80;;;;;;;21.48;16.15;99534.56;5073676;28;19920;-80
2022/01/19 04:24:21;;;;;;;10.93;4.03;;;;;;;21.69;16.02;99532.03;5061018;28;20595;-79
2022/01/19 04:26:58;;;;;;;10.35;3.67;;;;;;;21.47;16.13;99521.00;5054826;28;20069;-80
2022/01/19 04:29:25;;;;;;;8.10;3.75;;;;;;;21.81;15.80;99522.56;5053988;28;20056;-80
2022/01/19 04:31:51;;;;;;;9.77;3.78;;;;;;;21.75;15.96;99518.53;5053992;28;20480;-79
2022/01/19 04:34:19;;;;;;;11.38;3.10;;;;;;;22.04;15.52;99512.03;5053887;28;20036;-80
2022/01/19 04:37:27;;;;;;;8.38;2.78;;;;;;;21.93;15.56;99511.94;5053760;28;20029;-80
2022/01/19 05:04:21;;;;;;;10.25;3.22;;;;;;;22.18;15.50;99463.78;5053395;28;20033;-80
2022/01/19 05:06:52;;;;;;;11.60;4.57;;;;;;;21.87;15.63;99454.75;5053743;28;20036;-80
2022/01/19 05:14:43;;;;;;;14.93;5.78;;;;;;;22.06;15.28;99445.31;5065487;28;20292;-80
2022/01/19 05:17:09;;;;;;;15.32;5.55;;;;;;;22.03;15.43;99448.91;5053010;28;20029;-80
2022/01/19 05:19:36;;;;;;;19.33;8.57;;;;;;;22.18;15.31;99445.00;5052649;28;20104;-80
2022/01/19 05:22:02;;;;;;;19.25;6.10;;;;;;;22.16;15.30;99441.81;5053254;28;20055;-80
2022/01/19 05:24:28;;;;;;;16.52;6.43;;;;;;;22.15;15.31;99442.97;5053116;28;20036;-80
2022/01/19 05:26:54;;;;;;;15.48;6.03;;;;;;;22.49;14.93;99444.44;5060724;28;20499;-80
2022/01/19 05:29:20;;;;;;;19.02;7.55;;;;;;;22.64;14.98;99446.13;5071795;28;20039;-80
2022/01/19 05:31:46;;;;;;;14.18;5.78;;;;;;;22.55;14.97;99440.06;5064669;28;20381;-82
2022/01/19 05:34:12;;;;;;;15.52;5.45;;;;;;;22.61;15.01;99432.13;5052662;28;20326;-81
2022/01/19 05:36:39;;;;;;;14.77;6.47;;;;;;;22.54;14.84;99435.66;5056759;28;20024;-80
2022/01/19 05:39:05;;;;;;;13.32;5.63;;;;;;;22.25;14.93;99427.47;5063068;28;20362;-80
2022/01/19 05:41:32;;;;;;;13.63;5.32;;;;;;;22.31;15.02;99423.91;5053238;28;20388;-80
2022/01/19 05:43:58;;;;;;;12.82;4.60;;;;;;;22.40;15.02;99423.59;5069473;28;20033;-80
2022/01/19 05:46:24;;;;;;;14.05;5.30;;;;;;;22.36;15.13;99429.13;5073106;28;20108;-80
2022/01/19 05:48:50;;;;;;;11.75;4.53;;;;;;;22.08;15.21;99419.78;5065577;28;20392;-79
2022/01/19 05:51:16;;;;;;;11.85;5.60;;;;;;;22.38;14.87;99414.78;5072187;28;20029;-80
2022/01/19 05:53:42;;;;;;;13.60;5.15;;;;;;;22.31;14.92;99411.94;5072932;28;20040;-80
2022/01/19 05:56:09;;;;;;;13.65;7.00;;;;;;;22.31;14.87;99404.31;5056151;28;20029;-80
2022/01/19 05:58:35;;;;;;;15.60;4.93;;;;;;;21.88;14.99;99408.03;5052921;28;20040;-79
2022/01/19 06:01:01;;;;;;;13.23;4.70;;;;;;;21.81;15.23;99413.53;5052906;28;20063;-80
2022/01/19 06:03:27;;;;;;;8.30;3.30;;;;;;;21.59;15.49;99411.72;5058110;28;20546;-79
2022/01/19 06:05:54;;;;;;;11.02;3.65;;;;;;;21.68;15.31;99401.81;5053515;28;20029;-79
2022/01/19 06:10:47;;;;;;;11.43;3.78;;;;;;;21.59;15.14;99394.94;5052992;28;20029;-79
2022/01/19 06:13:16;;;;;;;13.30;6.43;;;;;;;21.64;15.14;99397.38;5055633;28;20396;-79
2022/01/19 06:15:45;;;;;;;10.90;4.35;;;;;;;21.80;14.79;99397.94;5072784;28;20036;-79
2022/01/19 06:18:11;;;;;;;13.48;5.57;;;;;;;21.88;14.63;99388.44;5072415;28;20025;-79
2022/01/19 06:20:38;;;;;;;11.43;5.78;;;;;;;22.01;14.55;99390.53;5072973;28;20041;-79
2022/01/19 06:23:04;;;;;;;10.13;4.13;;;;;;;21.81;14.54;99389.16;5061934;28;20037;-79
2022/01/19 06:25:30;;;;;;;15.20;4.13;;;;;;;21.72;14.54;99379.50;5053270;28;20051;-79
2022/01/19 06:27:57;;;;;;;14.57;5.18;;;;;;;21.75;14.57;99376.72;5051466;28;20366;-79
2022/01/19 06:30:23;;;;;;;12.85;5.32;;;;;;;21.54;14.76;99370.16;5052669;28;20029;-79
2022/01/19 06:32:49;;;;;;;14.60;8.70;;;;;;;21.12;14.93;99368.56;5052097;28;20538;-79
2022/01/19 06:35:16;;;;;;;9.00;5.03;;;;;;;21.02;15.21;99365.63;5052642;28;20041;-79
2022/01/19 06:37:42;;;;;;;10.70;4.88;;;;;;;21.27;14.91;99364.72;5055166;28;20404;-79
2022/01/19 06:40:11;;;;;;;16.33;4.75;;;;;;;21.47;14.72;99356.13;5059733;28;20040;-79
2022/01/19 06:42:38;;;;;;;14.20;5.88;;;;;;;21.62;14.54;99358.66;5052903;28;20558;-79
2022/01/19 06:45:06;;;;;;;13.02;4.65;;;;;;;21.80;14.21;99358.78;5055662;28;20033;-79
2022/01/19 06:47:32;;;;;;;18.23;6.07;;;;;;;21.89;14.08;99357.28;5057496;28;20446;-79
2022/01/19 06:49:58;;;;;;;18.42;6.25;;;;;;;21.94;14.04;99354.13;5076439;28;20063;-79
2022/01/19 06:52:24;;;;;;;19.30;6.80;;;;;;;21.93;14.07;99351.75;5075753;28;20028;-79
2022/01/19 06:54:50;;;;;;;17.90;6.00;;;;;;;21.88;14.07;99349.31;5075905;28;20480;-79
2022/01/19 06:57:16;;;;;;;19.70;6.32;;;;;;;21.67;14.27;99351.91;5063214;28;20547;-79
2022/01/19 06:59:43;;;;;;;17.35;6.57;;;;;;;21.66;14.47;99348.31;5061123;28;20118;-79
2022/01/19 07:02:10;;;;;;;18.88;8.20;;;;;;;21.78;14.36;99358.38;5075322;28;20032;-79
2022/01/19 07:04:36;;;;;;;16.25;6.30;;;;;;;21.91;14.16;99356.94;5075622;28;20060;-79
2022/01/19 07:07:03;;;;;;;16.42;6.63;;;;;;;22.03;14.08;99356.63;5075701;28;20070;-79
2022/01/19 07:09:30;;;;;;;18.63;6.68;;;;;;;22.01;13.94;99350.56;5075588;28;20043;-79
2022/01/19 07:11:56;;;;;;;15.10;6.22;;;;;;;22.05;13.99;99345.03;5075627;28;20024;-79
2022/01/19 07:14:22;;;;;;;15.48;6.15;;;;;;;22.18;13.78;99349.91;5061739;28;20061;-79
2022/01/19 07:16:48;;;;;;;19.98;6.03;;;;;;;22.19;13.72;99348.72;5055968;28;20029;-79
2022/01/19 07:19:15;;;;;;;14.20;5.55;;;;;;;22.15;13.76;99347.88;5055143;28;20053;-79
2022/01/19 07:21:41;;;;;;;12.60;5.13;;;;;;;22.12;14.05;99345.88;5055581;28;20033;-79
2022/01/19 07:24:07;;;;;;;16.98;5.28;;;;;;;22.18;13.88;99344.31;5055619;28;20037;-79
2022/01/19 07:26:33;;;;;;;14.73;6.88;;;;;;;22.09;14.04;99338.25;5055670;28;20542;-79
2022/01/19 07:28:59;;;;;;;16.60;6.75;;;;;;;22.18;13.96;99333.13;5053725;28;20056;-79
2022/01/19 07:31:25;;;;;;;12.93;5.50;;;;;;;22.32;13.86;99332.38;5068479;28;20606;-79
2022/01/19 07:33:52;;;;;;;9.93;4.63;;;;;;;22.20;13.67;99332.72;5067010;28;20041;-79
2022/01/19 07:36:18;;;;;;;11.55;3.88;;;;;;;22.09;13.90;99326.25;5055117;28;20041;-79
2022/01/19 07:38:44;;;;;;;17.33;4.28;;;;;;;21.96;13.90;99325.81;5055409;28;20040;-79
2022/01/19 07:41:10;;;;;;;8.50;4.13;;;;;;;21.64;14.16;99324.72;5054832;28;20040;-79
2022/01/19 07:43:37;;;;;;;11.82;3.60;;;;;;;21.76;14.33;99321.63;5054070;28;20430;-79
2022/01/19 07:46:04;;;;;;;7.07;3.33;;;;;;;21.99;14.07;99313.81;5054722;28;20035;-79
2022/01/19 07:48:30;;;;;;;12.07;4.57;;;;;;;22.13;13.91;99311.09;5068939;28;20178;-79
2022/01/19 07:50:56;;;;;;;33.65;11.85;;;;;;;22.06;13.94;99308.25;5071543;28;20438;-79
2022/01/19 07:53:22;;;;;;;20.10;8.48;;;;;;;22.12;13.90;99306.72;5064182;28;20032;-79
2022/01/19 07:55:49;;;;;;;12.75;5.18;;;;;;;22.10;13.90;99297.13;5074113;28;20476;-79
2022/01/19 07:58:16;;;;;;;15.93;4.90;;;;;;;21.91;13.97;99290.59;5054517;28;20112;-79
2022/01/19 08:00:42;;;;;;;8.85;4.75;;;;;;;21.73;14.33;99298.03;5054629;28;20510;-79
2022/01/19 08:03:11;;;;;;;12.40;4.47;;;;;;;21.58;14.25;99292.75;5065239;28;20036;-79
2022/01/19 08:05:38;;;;;;;24.50;10.73;;;;;;;21.82;14.27;99295.69;5058991;28;20040;-79
2022/01/19 08:08:04;;;;;;;13.65;6.30;;;;;;;22.18;13.87;99279.97;5055164;28;20029;-79
2022/01/19 08:10:31;;;;;;;12.55;6.03;;;;;;;22.26;13.94;99286.41;5055034;28;20396;-79
2022/01/19 08:13:01;;;;;;;20.35;8.60;;;;;;;22.42;13.81;99281.28;5054024;28;20484;-79
2022/01/19 08:15:27;;;;;;;14.70;6.30;;;;;;;22.38;13.87;99280.47;5054350;28;20477;-79
2022/01/19 08:17:53;;;;;;;19.17;8.68;;;;;;;22.57;13.65;99280.09;5052923;28;20434;-79
2022/01/19 08:20:19;;;;;;;16.83;6.57;;;;;;;22.42;13.58;99287.69;5054777;28;20543;-79
2022/01/19 08:22:46;;;;;;;21.80;8.30;;;;;;;21.97;14.04;99282.66;5070434;28;20485;-79
2022/01/19 08:25:12;;;;;;;21.52;9.05;;;;;;;22.12;13.89;99272.34;5073395;28;20032;-79
2022/01/19 08:27:38;;;;;;;18.63;7.40;;;;;;;22.07;13.96;99272.72;5073885;28;20043;-79
2022/01/19 08:30:07;;;;;;;21.30;7.40;;;;;;;21.75;14.26;99266.91;5074038;28;20457;-79
2022/01/19 08:32:36;;;;;;;23.33;9.30;;;;;;;21.86;14.21;99265.00;5063627;28;20082;-79
2022/01/19 08:35:07;;;;;;;18.15;7.78;;;;;;;22.21;14.12;99261.59;5054088;28;20029;-79
2022/01/19 08:37:34;;;;;;;13.00;6.53;;;;;;;22.37;13.77;99251.66;5057462;28;20039;-79
2022/01/19 08:40:01;;;;;;;16.48;7.63;;;;;;;22.32;13.88;99252.06;5061684;28;20039;-79
2022/01/19 08:42:28;;;;;;;12.88;6.97;;;;;;;22.73;13.61;99237.81;5057769;28;20107;-79
2022/01/19 08:44:55;;;;;;;16.27;7.57;;;;;;;22.83;13.66;99245.41;5070952;28;20025;-79
2022/01/19 08:47:22;;;;;;;9.35;4.93;;;;;;;22.89;13.47;99244.63;5053861;28;20025;-79
2022/01/19 08:49:48;;;;;;;13.90;6.55;;;;;;;22.60;13.78;99228.94;5053683;28;20033;-79
2022/01/19 08:52:16;;;;;;;9.55;4.75;;;;;;;22.40;13.93;99230.50;5053919;28;20078;-79
2022/01/19 08:54:45;;;;;;;12.90;5.65;;;;;;;22.55;13.94;99218.94;5052446;28;20033;-79
2022/01/19 08:57:11;;;;;;;14.32;6.20;;;;;;;22.78;13.84;99220.63;5053801;28;20025;-79
2022/01/19 08:59:37;;;;;;;12.27;5.50;;;;;;;23.08;13.85;99219.03;5066091;28;20082;-79
2022/01/19 09:02:04;;;;;;;11.73;5.10;;;;;;;22.89;13.74;99215.81;5073557;28;20074;-79
2022/01/19 09:04:30;;;;;;;16.67;6.20;;;;;;;22.50;14.10;99219.31;5072247;28;20480;-79
2022/01/19 09:06:58;;;;;;;11.63;4.95;;;;;;;22.62;14.07;99218.97;5072906;28;20024;-80
2022/01/19 09:09:25;;;;;;;11.32;5.00;;;;;;;22.41;14.30;99206.91;5073528;28;20032;-79
2022/01/19 09:11:51;;;;;;;15.02;6.78;;;;;;;22.87;14.00;99205.00;5072684;28;20041;-80
2022/01/19 09:14:17;;;;;;;17.45;6.20;;;;;;;22.65;14.11;99195.81;5053369;28;21140;-80
2022/01/19 09:16:45;;;;;;;10.98;4.60;;;;;;;22.08;14.34;99191.19;5053742;28;20427;-80
2022/01/19 09:19:12;;;;;;;11.43;5.20;;;;;;;21.95;14.57;99196.38;5053111;28;20052;-80
2022/01/19 09:21:38;;;;;;;13.23;5.55;;;;;;;21.40;15.18;99202.41;5053142;28;20296;-80
2022/01/19 09:24:05;;;;;;;15.38;4.60;;;;;;;21.78;15.22;99185.03;5053280;28;20032;-80
2022/01/19 09:26:31;;;;;;;14.32;5.22;;;;;;;22.08;14.75;99173.66;5051604;28;20041;-80
2022/01/19 09:28:57;;;;;;;13.63;6.28;;;;;;;21.83;15.12;99177.09;5054317;28;20427;-79
2022/01/19 09:31:24;;;;;;;11.52;5.07;;;;;;;21.68;14.93;99178.22;5068766;28;20457;-80
2022/01/19 09:34:07;;;;;;;15.60;5.60;;;;;;;21.46;15.19;99182.09;5053538;28;20036;-79
2022/01/19 09:36:35;;;;;;;13.70;6.78;;;;;;;21.06;15.67;99171.03;5057094;28;20035;-80
2022/01/19 09:39:04;;;;;;;26.63;11.25;;;;;;;19.74;16.94;99179.16;5061472;28;20038;-80
2022/01/19 09:41:31;;;;;;;11.80;5.38;;;;;;;20.40;16.44;99172.00;5072821;28;20040;-80
2022/01/19 09:43:57;;;;;;;15.77;6.40;;;;;;;21.27;15.67;99158.03;5072032;28;20032;-80
2022/01/19 09:46:23;;;;;;;13.85;5.68;;;;;;;20.60;15.96;99160.25;5072517;28;20032;-80
2022/01/19 09:48:50;;;;;;;10.68;5.57;;;;;;;21.38;15.63;99149.69;5073156;28;20116;-80
2022/01/19 09:51:17;;;;;;;16.88;6.43;;;;;;;21.85;15.17;99141.19;5072600;28;20116;-80
2022/01/19 09:53:45;;;;;;;11.45;4.75;;;;;;;22.33;15.06;99140.94;5072937;28;20058;-80
2022/01/19 09:56:11;;;;;;;13.70;5.38;;;;;;;22.47;14.66;99136.19;5071569;28;20039;-80
2022/01/19 09:58:37;;;;;;;13.27;5.45;;;;;;;21.76;15.26;99126.75;5073272;28;20089;-80
2022/01/19 10:01:03;;;;;;;17.02;6.68;;;;;;;21.16;15.85;99120.84;5072784;28;20032;-80
2022/01/19 10:03:32;;;;;;;10.27;4.35;;;;;;;21.55;15.61;99126.66;5070603;28;20024;-80
2022/01/19 10:06:19;;;;;;;14.95;5.72;;;;;;;21.70;15.50;99121.94;5072291;28;20074;-80
2022/01/19 10:08:47;;;;;;;17.02;6.72;;;;;;;21.47;15.51;99107.47;5072167;28;20063;-80
2022/01/19 10:11:17;;;;;;;17.55;6.43;;;;;;;21.89;15.65;99105.66;5072846;28;20030;-80
2022/01/19 10:17:01;;;;;;;17.95;6.40;;;;;;;22.72;14.96;99097.00;5072625;28;20119;-80
2022/01/19 10:19:34;;;;;;;13.05;5.53;;;;;;;22.67;14.52;99083.41;5075011;28;20559;-80
2022/01/19 10:22:15;;;;;;;15.73;5.60;;;;;;;21.40;15.52;99077.47;5057844;28;20132;-80
2022/01/19 10:24:51;;;;;;;18.45;6.18;;;;;;;21.01;15.84;99073.63;5055222;28;20119;-80
2022/01/19 10:27:40;;;;;;;14.07;6.35;;;;;;;21.25;15.97;99067.44;5073331;28;20036;-80
2022/01/19 10:30:06;;;;;;;12.70;6.28;;;;;;;22.38;14.85;99070.59;5075166;28;20123;-80
2022/01/19 10:32:36;;;;;;;14.55;5.80;;;;;;;22.98;14.53;99068.59;5070640;28;20170;-80
2022/01/19 10:35:29;;;;;;;10.10;4.90;;;;;;;23.42;14.17;99065.28;5056421;28;20484;-81
2022/01/19 10:38:24;;;;;;;11.88;6.18;;;;;;;23.58;14.07;99056.41;5065434;28;20449;-80
2022/01/19 10:40:59;;;;;;;12.85;5.43;;;;;;;24.08;13.98;99052.19;5075679;28;20064;-80
2022/01/19 10:43:29;;;;;;;16.20;5.93;;;;;;;22.90;14.26;99044.59;5062893;28;20059;-80
2022/01/19 10:45:56;;;;;;;;;;;;;;;22.50;14.34;99042.19;5068813;28;20028;-80
2022/01/19 10:48:37;;;;;;;14.85;6.18;;;;;;;22.31;15.35;99037.03;5076526;28;19928;-80
2022/01/19 10:51:12;;;;;;;16.75;7.63;;;;;;;22.40;15.12;99031.81;5076039;28;20036;-80
2022/01/19 10:53:40;;;;;;;15.13;6.90;;;;;;;21.71;15.60;99023.69;5061394;28;20456;-80
2022/01/19 10:56:14;;;;;;;21.00;8.75;;;;;;;21.26;15.60;99013.97;5056891;28;20096;-80
2022/01/19 10:58:59;;;;;;;17.33;7.93;;;;;;;20.77;15.94;99010.88;5070675;28;20100;-80
2022/01/19 11:01:52;;;;;;;16.33;7.25;;;;;;;20.33;16.48;99010.16;5076080;28;20043;-80
2022/01/19 11:04:20;;;;;;;15.45;6.68;;;;;;;20.42;16.41;99007.88;5075740;28;20035;-80
2022/01/19 11:06:52;;;;;;;17.75;7.25;;;;;;;21.08;16.19;98990.75;5075545;28;20477;-80
2022/01/19 11:09:23;;;;;;;18.38;8.98;;;;;;;21.61;15.74;98993.72;5075966;28;20540;-80
2022/01/19 11:11:49;;;;;;;13.63;7.32;;;;;;;21.14;16.12;98993.97;5073349;28;20102;-80
2022/01/19 11:14:16;;;;;;;15.23;6.93;;;;;;;21.37;15.63;98991.66;5075089;28;20350;-80
2022/01/19 11:16:43;;;;;;;20.20;8.52;;;;;;;21.49;15.49;98982.13;5075536;28;20028;-80
2022/01/19 11:19:11;;;;;;;21.60;9.02;;;;;;;21.46;16.10;98974.53;5070605;28;20106;-80
2022/01/19 11:21:50;;;;;;;17.05;8.50;;;;;;;21.27;16.16;98982.06;5073919;28;20029;-80
2022/01/19 11:25:02;;;;;;;20.92;9.05;;;;;;;19.69;17.63;98976.13;5074318;28;20032;-80
2022/01/19 11:27:37;;;;;;;25.15;11.95;;;;;;;19.93;17.44;98969.97;5073297;28;20052;-80
2022/01/19 11:30:26;;;;;;;19.17;8.48;;;;;;;19.67;17.65;98956.22;5074032;28;20020;-80
2022/01/19 11:33:13;;;;;;;18.63;8.50;;;;;;;20.36;17.29;98954.41;5066962;28;20098;-80
2022/01/19 11:35:41;;;;;;;23.33;10.32;;;;;;;20.17;17.39;98945.47;5074969;28;20028;-80
2022/01/19 11:38:34;;;;;;;20.88;8.82;;;;;;;18.42;19.03;98946.66;5063391;28;20025;-80
2022/01/19 11:41:03;;;;;;;19.92;8.45;;;;;;;18.97;18.95;98939.50;5055111;28;20052;-80
2022/01/19 11:43:31;;;;;;;19.85;9.55;;;;;;;19.73;18.02;98932.38;5054927;28;20036;-80
2022/01/19 11:46:00;;;;;;;24.35;10.57;;;;;;;20.06;17.85;98916.72;5064695;28;20481;-80
2022/01/19 11:48:29;;;;;;;22.00;10.43;;;;;;;21.13;16.74;98914.16;5074303;28;20037;-80
2022/01/19 11:51:26;;;;;;;18.58;8.15;;;;;;;20.30;17.65;98921.72;5074655;28;20028;-80
2022/01/19 11:54:12;;;;;;;17.90;8.32;;;;;;;20.50;17.51;98921.03;5074826;28;20037;-80
2022/01/19 11:57:06;;;;;;;20.27;9.93;;;;;;;19.20;18.43;98914.31;5075120;28;20033;-80
2022/01/19 11:59:47;;;;;;;18.08;8.90;;;;;;;20.03;18.16;98898.78;5073407;28;20086;-80
2022/01/19 12:02:19;;;;;;;;;;;;;;;20.39;17.28;98892.28;5072799;28;20029;-80
2022/01/19 12:04:45;;;;;;;24.52;9.50;;;;;;;20.30;17.31;98883.47;5074358;28;20006;-80
2022/01/19 12:07:44;;;;;;;19.20;8.60;;;;;;;19.81;17.98;98883.88;5073679;28;20036;-80
2022/01/19 12:10:19;;;;;;;19.67;8.68;;;;;;;19.45;18.42;98872.81;5074821;28;20047;-80
2022/01/19 12:13:09;;;;;;;25.65;9.73;;;;;;;20.29;17.66;98879.06;5074290;28;20032;-80
2022/01/19 12:16:06;;;;;;;19.58;8.57;;;;;;;19.84;17.94;98871.97;5072535;28;20384;-80
2022/01/19 12:18:51;;;;;;;21.27;8.85;;;;;;;21.10;16.97;98871.09;5074256;28;20049;-80
2022/01/19 12:21:58;;;;;;;20.52;8.73;;;;;;;20.74;17.11;98869.34;5074478;28;20036;-80
2022/01/19 12:24:29;;;;;;;14.80;7.93;;;;;;;20.40;17.44;98871.56;5074978;28;20029;-80
2022/01/19 12:27:07;;;;;;;18.70;9.00;;;;;;;20.11;17.84;98867.00;5074750;28;20029;-80
2022/01/19 12:29:38;;;;;;;24.27;9.73;;;;;;;20.00;17.97;98858.53;5074097;28;20029;-79
2022/01/19 12:32:08;;;;;;;21.55;8.52;;;;;;;21.01;17.01;98851.09;5063898;28;20136;-79
2022/01/19 12:34:55;;;;;;;22.43;9.73;;;;;;;21.87;16.16;98842.44;5054189;28;20060;-80
2022/01/19 12:37:37;;;;;;;19.67;8.05;;;;;;;22.95;15.37;98834.13;5062348;28;20039;-80
2022/01/19 12:40:26;;;;;;;21.13;8.60;;;;;;;22.88;15.05;98827.78;5056410;28;20035;-80
2022/01/19 12:43:02;;;;;;;22.88;8.88;;;;;;;22.09;15.78;98822.84;5068863;28;20409;-80
2022/01/19 12:45:32;;;;;;;17.75;8.13;;;;;;;22.93;15.33;98810.53;5054237;28;20384;-80
2022/01/19 12:48:03;;;;;;;11.57;6.60;;;;;;;22.90;15.10;98803.75;5064409;28;20551;-80
2022/01/19 12:50:29;;;;;;;21.50;9.07;;;;;;;23.24;14.89;98801.16;5073787;28;20388;-80
2022/01/19 12:53:12;;;;;;;24.33;9.30;;;;;;;23.69;14.45;98791.59;5073132;28;20028;-80
2022/01/19 12:55:41;;;;;;;15.70;6.97;;;;;;;23.43;14.67;98774.63;5073753;28;20048;-80
2022/01/19 12:58:35;;;;;;;32.38;13.02;;;;;;;24.04;14.39;98777.22;5073086;28;20403;-80
2022/01/19 13:01:09;;;;;;;19.13;8.00;;;;;;;24.56;14.03;98768.63;5073566;28;20055;-80
2022/01/19 13:03:41;;;;;;;19.58;7.97;;;;;;;24.50;13.79;98773.13;5072522;28;20036;-80
2022/01/19 13:06:13;;;;;;;20.52;7.82;;;;;;;24.56;13.93;98769.41;5073813;28;20028;-80
2022/01/19 13:08:46;;;;;;;23.55;9.15;;;;;;;24.71;13.85;98762.38;5058927;28;20439;-80
2022/01/19 13:11:46;;;;;;;17.20;8.85;;;;;;;24.80;13.51;98763.91;5054301;28;20138;-80
2022/01/19 13:14:13;;;;;;;15.60;7.15;;;;;;;25.00;13.63;98754.38;5054180;28;20412;-80
2022/01/19 13:16:51;;;;;;;18.98;6.93;;;;;;;25.05;13.68;98753.09;5053451;28;20029;-80
2022/01/19 13:19:25;;;;;;;16.90;7.68;;;;;;;25.21;13.63;98751.25;5053182;28;20110;-80
2022/01/19 13:22:04;;;;;;;16.98;6.88;;;;;;;25.33;13.14;98738.59;5052155;28;20037;-80
2022/01/19 13:24:33;;;;;;;16.83;7.47;;;;;;;25.35;13.47;98741.78;5052220;28;20033;-80
2022/01/19 13:27:05;;;;;;;26.98;13.75;;;;;;;25.35;13.44;98738.97;5054791;28;20025;-80